ICAO code: LHPR | IATA code: QGY | AFTN: LHPRZPZX | english | deutsch
Időjárás: 2017-10-20 01:20 (UTC) | Hőmérséklet: 6.5 °C | QNH: 1017.7 hPa | Szél: --.- m/s | Részletek
Live ATC LHPR
Webkameránk élőképe

Győr-Pér Repülőtér időjárás adatok

Metar:
METAR LHPR 200115Z AUTO 00000KT 0250 R30/0325N FG NSC 07/07 Q1017 RMK RE




Jelenidő:
Köd
Időbélyeg: 2017-10-20 01:20:00 UTC
Hőmérséklet:
6.5 °C
 
Harmatpont:
6.4 °C
 
Rel. páratartalom:
100%
 
QNH:
1017.7 hPa
 
Szélsebesség:
0.0 m/s
Max:
0.0 m/s
Szélirány:
200°
 
Csapadék (1 óra):
0.1 mm
 
Látótávolság:
77 m
 
RVR:
300 m RWY30
 
1. felhőréteg mennyisége:
6 octa
 
1. felhőréteg alapja:
7160 m


Az adatokat szolgáltatja
az Országos Meteorológiai Szolgálat
Győr-Pér Repülőtér | H 9099 Pér, Repülőtér | Tel: +36/96/559-200 | Fax: +36/96/559-202

ICAO code: LHPR | IATA code: QGY | AFTN: LHPRZPZX


weboldal tervezés: IRQ